Weather History for KCVX - June, 2013

Change the Weather History Date:

Thursday, June 20, 2013

  Actual Average Record
Temperature  
Mean Temperature 64 °F -  
Max Temperature 78 °F 73 °F 88 °F (2012)
Min Temperature 50 °F 58 °F 44 °F (2003)
Degree Days  
Heating Degree Days 1    
Growing Degree Days 14 (Base 50)    
Moisture  
Dew Point 51 °F    
Average Humidity 64    
Maximum Humidity 88    
Minimum Humidity 34    
Precipitation  
Precipitation 0.00 in - - ()
Sea Level Pressure  
Sea Level Pressure 30.17 in    
Wind  
Wind Speed 5 mph (SSW)    
Max Wind Speed 13 mph    
Max Gust Speed 21 mph    
Visibility 10 miles    
Events      
Averages and records for this station are not official NWS values.
T = Trace of Precipitation, MM = Missing Value Source: NWS Daily Summary

Daily Weather History Graph

Daily Weather History Graph

Search for Another Location

Airport or City:

Trip Planner

Search our weather history database for the weather conditions in past years. The results will help you decide how hot, cold, wet, or windy it might be!

Date:

Astronomy

Jun. 20, 2013 Rise Set
Actual Time 5:52 AM EDT 9:32 PM EDT
Civil Twilight 5:15 AM EDT 10:10 PM EDT
Nautical Twilight 4:24 AM EDT 11:00 PM EDT
Astronomical Twilight 3:16 AM EDT 12:08 AM EDT
Moon 6:28 PM EDT (6/20) 3:25 AM EDT (6/20)
Length of Visible Light 16h 55m
Length of Day
15h 39m
Waxing Gibbous, 89% of the Moon is Illuminated
Jun 20
Waxing Gibbous
Jun 23
Full
Jun 30
Last Quarter
Jul 8
New
Jul 15
First Quarter

Hourly Weather History & Observations

Time (EDT) Temp. Dew Point Humidity Pressure Visibility Wind Dir Wind Speed Gust Speed Precip Events Conditions
12:14 AM 54.7 °F 47.7 °F 77% 30.16 in 10.0 mi SE 3.5 mph - N/A   Clear
12:34 AM 54.0 °F 47.8 °F 80% 30.15 in 10.0 mi Calm Calm - N/A   Clear
12:55 AM 52.5 °F 47.7 °F 84% 30.15 in 10.0 mi SE 3.5 mph - N/A   Clear
1:14 AM 51.3 °F 47.7 °F 87% 30.15 in 10.0 mi ESE 4.6 mph - N/A   Clear
1:34 AM 51.1 °F 47.3 °F 87% 30.15 in 10.0 mi SE 3.5 mph - N/A   Clear
1:54 AM 50.9 °F 47.5 °F 88% 30.14 in 10.0 mi SSE 4.6 mph - N/A   Clear
2:14 AM 52.3 °F 47.5 °F 84% 30.14 in 10.0 mi SSE 4.6 mph - N/A   Clear
2:34 AM 53.1 °F 46.9 °F 80% 30.14 in 10.0 mi SE 4.6 mph - N/A   Clear
2:54 AM 52.9 °F 47.1 °F 81% 30.14 in 10.0 mi ESE 5.8 mph - N/A   Clear
3:14 AM 52.5 °F 47.5 °F 83% 30.15 in 10.0 mi ESE 4.6 mph - N/A   Clear
3:35 AM 51.8 °F 47.5 °F 85% 30.15 in 10.0 mi ESE 4.6 mph - N/A   Clear
3:54 AM 51.4 °F 47.3 °F 86% 30.15 in 10.0 mi SE 5.8 mph - N/A   Clear
4:14 AM 50.9 °F 47.5 °F 88% 30.16 in 10.0 mi SE 5.8 mph - N/A   Clear
4:35 AM 51.6 °F 47.5 °F 86% 30.15 in 10.0 mi SE 5.8 mph - N/A   Clear
4:54 AM 51.3 °F 47.3 °F 86% 30.15 in 10.0 mi SE 4.6 mph - N/A   Clear
5:14 AM 52.0 °F 47.3 °F 84% 30.15 in 10.0 mi SSE 5.8 mph - N/A   Clear
5:35 AM 52.5 °F 47.3 °F 82% 30.16 in 10.0 mi East 5.8 mph - N/A   Clear
5:54 AM 52.0 °F 47.5 °F 85% 30.17 in 10.0 mi SE 5.8 mph - N/A   Clear
6:14 AM 51.8 °F 47.5 °F 85% 30.17 in 10.0 mi SE 4.6 mph - N/A   Clear
6:35 AM 52.7 °F 47.8 °F 84% 30.17 in 10.0 mi ESE 5.8 mph - N/A   Clear
6:54 AM 53.6 °F 48.4 °F 82% 30.17 in 10.0 mi ESE 5.8 mph - N/A   Clear
7:14 AM 55.0 °F 49.1 °F 80% 30.18 in 10.0 mi ESE 4.6 mph - N/A   Clear
7:34 AM 57.0 °F 49.6 °F 76% 30.17 in 10.0 mi ESE 5.8 mph - N/A   Clear
7:54 AM 59.0 °F 50.2 °F 73% 30.18 in 10.0 mi ESE 4.6 mph - N/A   Clear
8:15 AM 60.3 °F 50.5 °F 70% 30.19 in 10.0 mi Calm Calm - N/A   Clear
8:34 AM 63.7 °F 49.3 °F 59% 30.18 in 10.0 mi SSW 4.6 mph - N/A   Clear
8:54 AM 64.8 °F 47.7 °F 54% 30.19 in 10.0 mi SSW 5.8 mph - N/A   Clear
9:15 AM 65.8 °F 46.0 °F 49% 30.19 in 10.0 mi SSW 9.2 mph - N/A   Clear
9:34 AM 67.1 °F 44.6 °F 44% 30.19 in 10.0 mi SSW 4.6 mph - N/A   Clear
9:54 AM 68.7 °F 42.8 °F 39% 30.18 in 10.0 mi SW 5.8 mph - N/A   Clear
10:15 AM 70.2 °F 41.4 °F 35% 30.18 in 10.0 mi SW 6.9 mph - N/A   Clear
10:34 AM 71.2 °F 42.4 °F 35% 30.18 in 10.0 mi SW 10.4 mph - N/A   Clear
10:54 AM 71.6 °F 42.1 °F 34% 30.19 in 10.0 mi SW 12.7 mph 17.3 mph N/A   Clear
11:15 AM 72.3 °F 44.4 °F 37% 30.19 in 10.0 mi WSW 9.2 mph - N/A   Clear
11:34 AM 73.6 °F 47.3 °F 39% 30.20 in 10.0 mi SW 9.2 mph - N/A   Clear
11:54 AM 73.9 °F 47.7 °F 39% 30.20 in 10.0 mi WSW 8.1 mph - N/A   Clear
12:14 PM 74.7 °F 48.4 °F 39% 30.20 in 10.0 mi SW 10.4 mph - N/A   Clear
12:34 PM 75.6 °F 50.2 °F 41% 30.20 in 10.0 mi WSW 12.7 mph 20.7 mph N/A   Clear
12:55 PM 76.5 °F 51.8 °F 42% 30.19 in 10.0 mi WSW 11.5 mph - N/A   Clear
1:14 PM 76.1 °F 51.4 °F 42% 30.20 in 10.0 mi SW 12.7 mph 18.4 mph N/A   Clear
1:34 PM 77.2 °F 52.9 °F 43% 30.19 in 10.0 mi SW 10.4 mph - N/A   Clear
1:55 PM 77.2 °F 53.4 °F 44% 30.19 in 10.0 mi SW 9.2 mph 16.1 mph N/A   Clear
2:14 PM 77.4 °F 53.4 °F 43% 30.19 in 10.0 mi SW 10.4 mph - N/A   Clear
2:34 PM 77.5 °F 54.3 °F 44% 30.19 in 10.0 mi SW 6.9 mph - N/A   Clear
2:55 PM 78.1 °F 55.0 °F 45% 30.18 in 10.0 mi SW 9.2 mph - N/A   Clear
3:14 PM 75.2 °F 55.4 °F 50% 30.18 in 10.0 mi WNW 9.2 mph - N/A   Clear
3:34 PM 74.7 °F 53.8 °F 48% 30.19 in 10.0 mi West 10.4 mph - N/A   Clear
3:55 PM 74.8 °F 53.4 °F 47% 30.18 in 10.0 mi West 11.5 mph - N/A   Clear
4:14 PM 76.5 °F 55.0 °F 47% 30.17 in 10.0 mi WNW 9.2 mph - N/A   Clear
4:34 PM 77.4 °F 55.0 °F 46% 30.17 in 10.0 mi West 9.2 mph - N/A   Clear
4:54 PM 77.9 °F 55.8 °F 46% 30.17 in 10.0 mi West 10.4 mph - N/A   Clear
5:14 PM 77.2 °F 56.3 °F 48% 30.16 in 10.0 mi West 9.2 mph - N/A   Clear
5:35 PM 78.4 °F 55.9 °F 46% 30.16 in 10.0 mi West 6.9 mph - N/A   Clear
5:54 PM 75.7 °F 55.8 °F 50% 30.16 in 10.0 mi WNW 9.2 mph - N/A   Clear
6:14 PM 75.0 °F 56.3 °F 52% 30.15 in 10.0 mi WNW 8.1 mph - N/A   Clear
6:34 PM 75.0 °F 57.0 °F 53% 30.15 in 10.0 mi West 6.9 mph - N/A   Clear
6:54 PM 75.2 °F 55.9 °F 51% 30.14 in 10.0 mi West 5.8 mph - N/A   Clear
7:14 PM 75.2 °F 56.1 °F 51% 30.14 in 10.0 mi WNW 5.8 mph - N/A   Clear
7:34 PM 64.0 °F 54.3 °F 71% 30.16 in 10.0 mi NW 9.2 mph - N/A   Clear
7:54 PM 63.7 °F 54.5 °F 72% 30.16 in 10.0 mi WNW 4.6 mph - N/A   Clear
8:15 PM 62.8 °F 53.8 °F 72% 30.16 in 10.0 mi NW 4.6 mph - N/A   Clear
8:34 PM 62.6 °F 53.6 °F 72% 30.16 in 10.0 mi Calm Calm - N/A   Clear
8:54 PM 61.9 °F 53.6 °F 74% 30.17 in 10.0 mi Calm Calm - N/A   Clear
9:15 PM 62.1 °F 53.6 °F 74% 30.16 in 10.0 mi Calm Calm - N/A   Clear
9:34 PM 62.1 °F 54.0 °F 75% 30.16 in 10.0 mi Calm Calm - N/A   Scattered Clouds
9:54 PM 61.9 °F 54.1 °F 76% 30.17 in 10.0 mi Calm Calm - N/A   Clear
10:15 PM 60.4 °F 54.5 °F 81% 30.18 in 10.0 mi Calm Calm - N/A   Clear
10:34 PM 60.6 °F 54.7 °F 81% 30.19 in 10.0 mi Calm Calm - N/A   Clear
10:54 PM 60.1 °F 54.9 °F 83% 30.19 in 10.0 mi Calm Calm - N/A   Clear
11:15 PM 59.2 °F 54.5 °F 84% 30.19 in 10.0 mi Calm Calm - N/A   Clear
11:34 PM 59.7 °F 54.5 °F 83% 30.19 in 10.0 mi Calm Calm - N/A   Clear
11:54 PM 58.8 °F 54.7 °F 86% 30.19 in 10.0 mi SE 3.5 mph - N/A   Clear